sensor_id;sensor_type;location;lat;lon;timestamp;pressure;altitude;pressure_sealevel;temperature;humidity
19890;BME280;10107;51.198;6.824;2023-02-22T00:02:09;-21442.47;;;4.64;100.00
19890;BME280;10107;51.198;6.824;2023-02-22T00:06:15;-21442.22;;;4.63;100.00
19890;BME280;10107;51.198;6.824;2023-02-22T00:10:17;-21442.59;;;4.64;100.00
19890;BME280;10107;51.198;6.824;2023-02-22T00:14:20;-21441.00;;;4.58;100.00
19890;BME280;10107;51.198;6.824;2023-02-22T00:18:21;-21438.72;;;4.49;100.00
19890;BME280;10107;51.198;6.824;2023-02-22T00:22:24;-21439.00;;;4.50;100.00
19890;BME280;10107;51.198;6.824;2023-02-22T00:26:26;-21437.25;;;4.44;100.00
19890;BME280;10107;51.198;6.824;2023-02-22T00:30:28;-21436.72;;;4.42;100.00
19890;BME280;10107;51.198;6.824;2023-02-22T00:34:31;-21436.72;;;4.42;100.00
19890;BME280;10107;51.198;6.824;2023-02-22T00:38:34;-21436.59;;;4.41;100.00
19890;BME280;10107;51.198;6.824;2023-02-22T00:42:36;-21437.00;;;4.43;100.00
19890;BME280;10107;51.198;6.824;2023-02-22T00:46:38;-21437.38;;;4.44;100.00
19890;BME280;10107;51.198;6.824;2023-02-22T00:50:39;-21437.78;;;4.46;100.00
19890;BME280;10107;51.198;6.824;2023-02-22T00:54:43;-21437.13;;;4.43;100.00
19890;BME280;10107;51.198;6.824;2023-02-22T00:58:44;-21437.13;;;4.43;100.00
19890;BME280;10107;51.198;6.824;2023-02-22T01:02:46;-21437.25;;;4.44;100.00
19890;BME280;10107;51.198;6.824;2023-02-22T01:06:49;-21437.13;;;4.43;100.00
19890;BME280;10107;51.198;6.824;2023-02-22T01:10:52;-21436.59;;;4.41;100.00
19890;BME280;10107;51.198;6.824;2023-02-22T01:14:55;-21436.84;;;4.42;100.00
19890;BME280;10107;51.198;6.824;2023-02-22T01:18:57;-21436.31;;;4.40;100.00
19890;BME280;10107;51.198;6.824;2023-02-22T01:23:02;-21436.59;;;4.41;100.00
19890;BME280;10107;51.198;6.824;2023-02-22T01:27:07;-21436.44;;;4.41;100.00
19890;BME280;10107;51.198;6.824;2023-02-22T01:31:11;-21435.91;;;4.39;100.00
19890;BME280;10107;51.198;6.824;2023-02-22T01:35:13;-21436.31;;;4.40;100.00
19890;BME280;10107;51.198;6.824;2023-02-22T01:39:15;-21436.31;;;4.40;100.00
19890;BME280;10107;51.198;6.824;2023-02-22T01:43:20;-21437.53;;;4.45;100.00
19890;BME280;10107;51.198;6.824;2023-02-22T01:47:22;-21438.31;;;4.48;100.00
19890;BME280;10107;51.198;6.824;2023-02-22T01:51:24;-21438.72;;;4.49;100.00
19890;BME280;10107;51.198;6.824;2023-02-22T01:55:27;-21439.66;;;4.53;100.00
19890;BME280;10107;51.198;6.824;2023-02-22T01:59:32;-21440.47;;;4.56;100.00
19890;BME280;10107;51.198;6.824;2023-02-22T02:03:43;-21441.41;;;4.60;100.00
19890;BME280;10107;51.198;6.824;2023-02-22T02:07:45;-21442.34;;;4.63;100.00
19890;BME280;10107;51.198;6.824;2023-02-22T02:11:46;-21443.41;;;4.67;100.00
19890;BME280;10107;51.198;6.824;2023-02-22T02:15:51;-21444.22;;;4.70;100.00
19890;BME280;10107;51.198;6.824;2023-02-22T02:19:56;-21444.59;;;4.72;100.00
19890;BME280;10107;51.198;6.824;2023-02-22T02:32:54;-21446.34;;;4.79;100.00
19890;BME280;10107;51.198;6.824;2023-02-22T02:36:57;-21447.28;;;4.82;100.00
19890;BME280;10107;51.198;6.824;2023-02-22T02:41:04;-21447.56;;;4.83;100.00
19890;BME280;10107;51.198;6.824;2023-02-22T02:45:08;-21447.28;;;4.82;100.00
19890;BME280;10107;51.198;6.824;2023-02-22T02:49:14;-21448.34;;;4.86;100.00
19890;BME280;10107;51.198;6.824;2023-02-22T02:53:20;-21448.75;;;4.88;100.00
19890;BME280;10107;51.198;6.824;2023-02-22T02:57:23;-21448.63;;;4.87;100.00
19890;BME280;10107;51.198;6.824;2023-02-22T03:01:30;-21448.47;;;4.87;100.00
19890;BME280;10107;51.198;6.824;2023-02-22T03:05:41;-21447.28;;;4.82;100.00
19890;BME280;10107;51.198;6.824;2023-02-22T03:09:52;-21446.34;;;4.79;100.00
19890;BME280;10107;51.198;6.824;2023-02-22T03:14:00;-21446.06;;;4.78;100.00
19890;BME280;10107;51.198;6.824;2023-02-22T03:18:05;-21445.28;;;4.74;100.00
19890;BME280;10107;51.198;6.824;2023-02-22T03:22:10;-21444.75;;;4.72;100.00
19890;BME280;10107;51.198;6.824;2023-02-22T03:26:13;-21445.41;;;4.75;100.00
19890;BME280;10107;51.198;6.824;2023-02-22T03:30:20;-21446.47;;;4.79;100.00
19890;BME280;10107;51.198;6.824;2023-02-22T03:34:25;-21447.28;;;4.82;100.00
19890;BME280;10107;51.198;6.824;2023-02-22T03:38:30;-21445.13;;;4.74;100.00
19890;BME280;10107;51.198;6.824;2023-02-22T03:42:33;-21443.13;;;4.66;100.00
19890;BME280;10107;51.198;6.824;2023-02-22T03:46:39;-21441.41;;;4.60;100.00
19890;BME280;10107;51.198;6.824;2023-02-22T03:50:42;-21440.72;;;4.57;100.00
19890;BME280;10107;51.198;6.824;2023-02-22T03:54:45;-21440.88;;;4.57;100.00
19890;BME280;10107;51.198;6.824;2023-02-22T03:58:47;-21440.59;;;4.56;100.00
19890;BME280;10107;51.198;6.824;2023-02-22T04:02:52;-21440.34;;;4.55;100.00
19890;BME280;10107;51.198;6.824;2023-02-22T04:06:54;-21440.72;;;4.57;100.00
19890;BME280;10107;51.198;6.824;2023-02-22T04:10:58;-21441.13;;;4.59;100.00
19890;BME280;10107;51.198;6.824;2023-02-22T04:15:01;-21439.78;;;4.53;100.00
19890;BME280;10107;51.198;6.824;2023-02-22T04:19:03;-21439.53;;;4.52;100.00
19890;BME280;10107;51.198;6.824;2023-02-22T04:23:06;-21438.59;;;4.49;100.00
19890;BME280;10107;51.198;6.824;2023-02-22T04:27:12;-21439.41;;;4.52;100.00
19890;BME280;10107;51.198;6.824;2023-02-22T04:31:15;-21439.78;;;4.53;100.00
19890;BME280;10107;51.198;6.824;2023-02-22T04:35:17;-21440.19;;;4.55;100.00
19890;BME280;10107;51.198;6.824;2023-02-22T04:39:19;-21439.53;;;4.52;100.00
19890;BME280;10107;51.198;6.824;2023-02-22T04:43:22;-21440.47;;;4.56;100.00
19890;BME280;10107;51.198;6.824;2023-02-22T04:47:27;-21440.47;;;4.56;100.00
19890;BME280;10107;51.198;6.824;2023-02-22T04:51:28;-21440.72;;;4.57;100.00
19890;BME280;10107;51.198;6.824;2023-02-22T04:55:35;-21441.53;;;4.60;100.00
19890;BME280;10107;51.198;6.824;2023-02-22T04:59:38;-21442.34;;;4.63;100.00
19890;BME280;10107;51.198;6.824;2023-02-22T05:03:44;-21442.47;;;4.64;100.00
19890;BME280;10107;51.198;6.824;2023-02-22T05:07:45;-21443.41;;;4.67;100.00
19890;BME280;10107;51.198;6.824;2023-02-22T05:11:47;-21442.75;;;4.65;100.00
19890;BME280;10107;51.198;6.824;2023-02-22T05:15:50;-21442.75;;;4.65;100.00
19890;BME280;10107;51.198;6.824;2023-02-22T05:19:52;-21442.22;;;4.63;100.00
19890;BME280;10107;51.198;6.824;2023-02-22T05:23:53;-21442.22;;;4.63;100.00
19890;BME280;10107;51.198;6.824;2023-02-22T05:27:57;-21440.06;;;4.54;100.00
19890;BME280;10107;51.198;6.824;2023-02-22T05:32:00;-21439.25;;;4.51;100.00
19890;BME280;10107;51.198;6.824;2023-02-22T05:36:02;-21436.84;;;4.42;100.00
19890;BME280;10107;51.198;6.824;2023-02-22T05:40:04;-21436.59;;;4.41;100.00
19890;BME280;10107;51.198;6.824;2023-02-22T05:44:06;-21435.00;;;4.35;100.00
19890;BME280;10107;51.198;6.824;2023-02-22T05:48:09;-21435.00;;;4.35;100.00
19890;BME280;10107;51.198;6.824;2023-02-22T05:52:12;-21433.91;;;4.31;100.00
19890;BME280;10107;51.198;6.824;2023-02-22T05:56:16;-21431.25;;;4.21;100.00
19890;BME280;10107;51.198;6.824;2023-02-22T06:00:21;-21430.56;;;4.18;100.00
19890;BME280;10107;51.198;6.824;2023-02-22T06:04:25;-21427.63;;;4.07;100.00
19890;BME280;10107;51.198;6.824;2023-02-22T06:08:27;-21425.75;;;4.00;100.00
19890;BME280;10107;51.198;6.824;2023-02-22T06:12:28;-21424.41;;;3.94;100.00
19890;BME280;10107;51.198;6.824;2023-02-22T06:16:29;-21422.28;;;3.86;100.00
19890;BME280;10107;51.198;6.824;2023-02-22T06:20:33;-21420.69;;;3.80;100.00
19890;BME280;10107;51.198;6.824;2023-02-22T06:24:37;-21420.53;;;3.80;100.00
19890;BME280;10107;51.198;6.824;2023-02-22T06:28:38;-21420.41;;;3.79;100.00
19890;BME280;10107;51.198;6.824;2023-02-22T06:32:39;-21420.00;;;3.77;100.00
19890;BME280;10107;51.198;6.824;2023-02-22T06:36:42;-21417.72;;;3.69;100.00
19890;BME280;10107;51.198;6.824;2023-02-22T06:40:44;-21416.38;;;3.64;100.00
19890;BME280;10107;51.198;6.824;2023-02-22T06:44:45;-21415.19;;;3.59;100.00
19890;BME280;10107;51.198;6.824;2023-02-22T06:48:47;-21414.53;;;3.56;100.00
19890;BME280;10107;51.198;6.824;2023-02-22T06:52:52;-21416.66;;;3.65;100.00
19890;BME280;10107;51.198;6.824;2023-02-22T06:56:53;-21417.31;;;3.67;100.00
19890;BME280;10107;51.198;6.824;2023-02-22T07:00:55;-21419.59;;;3.76;100.00
19890;BME280;10107;51.198;6.824;2023-02-22T07:04:56;-21422.41;;;3.87;100.00
19890;BME280;10107;51.198;6.824;2023-02-22T07:08:59;-21426.28;;;4.02;100.00
19890;BME280;10107;51.198;6.824;2023-02-22T07:13:01;-21429.50;;;4.14;100.00
19890;BME280;10107;51.198;6.824;2023-02-22T07:17:02;-21432.84;;;4.27;100.00
19890;BME280;10107;51.198;6.824;2023-02-22T07:21:04;-21437.53;;;4.45;100.00
19890;BME280;10107;51.198;6.824;2023-02-22T07:25:08;-21442.47;;;4.64;100.00
19890;BME280;10107;51.198;6.824;2023-02-22T07:29:10;-21446.75;;;4.80;100.00
19890;BME280;10107;51.198;6.824;2023-02-22T07:33:12;-21453.16;;;5.05;100.00
19890;BME280;10107;51.198;6.824;2023-02-22T07:37:13;-21459.16;;;5.28;100.00
19890;BME280;10107;51.198;6.824;2023-02-22T07:41:16;-21466.50;;;5.56;100.00
19890;BME280;10107;51.198;6.824;2023-02-22T07:45:18;-21472.78;;;5.80;100.00
19890;BME280;10107;51.198;6.824;2023-02-22T07:49:19;-21481.47;;;6.13;100.00
19890;BME280;10107;51.198;6.824;2023-02-22T07:53:22;-21493.72;;;6.61;100.00
19890;BME280;10107;51.198;6.824;2023-02-22T07:57:25;-21524.34;;;7.79;100.00
19890;BME280;10107;51.198;6.824;2023-02-22T08:01:27;-21574.16;;;9.71;100.00
19890;BME280;10107;51.198;6.824;2023-02-22T08:05:29;-21608.63;;;11.04;100.00
19890;BME280;10107;51.198;6.824;2023-02-22T08:09:30;-21644.44;;;12.43;96.83
19890;BME280;10107;51.198;6.824;2023-02-22T08:13:33;-21666.09;;;13.27;90.28
19890;BME280;10107;51.198;6.824;2023-02-22T08:17:36;-21700.63;;;14.62;84.46
19890;BME280;10107;51.198;6.824;2023-02-22T08:21:37;-21722.56;;;15.48;77.79
19890;BME280;10107;51.198;6.824;2023-02-22T08:25:39;-21713.25;;;15.11;76.22
19890;BME280;10107;51.198;6.824;2023-02-22T08:29:42;-21726.91;;;15.64;75.55
19890;BME280;10107;51.198;6.824;2023-02-22T08:33:45;-21733.88;;;15.92;72.51
19890;BME280;10107;51.198;6.824;2023-02-22T08:37:48;-21711.28;;;15.03;74.31
19890;BME280;10107;51.198;6.824;2023-02-22T08:41:49;-21702.84;;;14.71;76.02
19890;BME280;10107;51.198;6.824;2023-02-22T08:45:52;-21678.88;;;13.77;79.30
19890;BME280;10107;51.198;6.824;2023-02-22T08:49:54;-21660.56;;;13.06;85.03
19890;BME280;10107;51.198;6.824;2023-02-22T08:53:55;-21647.88;;;12.57;87.67
19890;BME280;10107;51.198;6.824;2023-02-22T08:57:57;-21640.88;;;12.29;88.91
19890;BME280;10107;51.198;6.824;2023-02-22T09:01:59;-21643.13;;;12.38;91.55
19890;BME280;10107;51.198;6.824;2023-02-22T09:06:02;-21644.44;;;12.43;90.48
19890;BME280;10107;51.198;6.824;2023-02-22T09:10:04;-21640.50;;;12.28;90.11
19890;BME280;10107;51.198;6.824;2023-02-22T09:14:05;-21643.53;;;12.40;89.38
19890;BME280;10107;51.198;6.824;2023-02-22T09:18:09;-21647.50;;;12.55;89.69
19890;BME280;10107;51.198;6.824;2023-02-22T09:22:11;-21650.78;;;12.68;87.50
19890;BME280;10107;51.198;6.824;2023-02-22T09:26:13;-21652.25;;;12.74;87.86
19890;BME280;10107;51.198;6.824;2023-02-22T09:30:16;-21663.19;;;13.16;86.13
19890;BME280;10107;51.198;6.824;2023-02-22T09:34:20;-21663.59;;;13.18;84.67
19890;BME280;10107;51.198;6.824;2023-02-22T09:38:27;-21654.63;;;12.83;85.28
19890;BME280;10107;51.198;6.824;2023-02-22T09:42:29;-21649.72;;;12.64;87.32
19890;BME280;10107;51.198;6.824;2023-02-22T09:46:34;-21653.03;;;12.77;86.32
19890;BME280;10107;51.198;6.824;2023-02-22T09:50:39;-21660.81;;;13.07;84.57
19890;BME280;10107;51.198;6.824;2023-02-22T09:54:43;-21669.25;;;13.40;83.50
19890;BME280;10107;51.198;6.824;2023-02-22T09:58:46;-21681.91;;;13.89;80.12
19890;BME280;10107;51.198;6.824;2023-02-22T10:02:50;-21697.06;;;14.48;78.87
19890;BME280;10107;51.198;6.824;2023-02-22T10:07:05;-21701.94;;;14.67;76.04
19890;BME280;10107;51.198;6.824;2023-02-22T10:11:12;-21715.22;;;15.19;73.08
19890;BME280;10107;51.198;6.824;2023-02-22T10:15:35;-21733.22;;;15.89;70.04
19890;BME280;10107;51.198;6.824;2023-02-22T10:19:42;-21742.00;;;16.23;67.07
19890;BME280;10107;51.198;6.824;2023-02-22T10:23:48;-21732.69;;;15.87;67.37
19890;BME280;10107;51.198;6.824;2023-02-22T10:27:54;-21734.78;;;15.95;67.33
19890;BME280;10107;51.198;6.824;2023-02-22T10:31:57;-21728.63;;;15.71;67.34
19890;BME280;10107;51.198;6.824;2023-02-22T10:36:00;-21742.28;;;16.24;64.80
19890;BME280;10107;51.198;6.824;2023-02-22T10:40:10;-21762.47;;;17.03;62.85
19890;BME280;10107;51.198;6.824;2023-02-22T10:44:12;-21774.91;;;17.52;60.17
19890;BME280;10107;51.198;6.824;2023-02-22T10:48:15;-21794.94;;;18.31;59.22
19890;BME280;10107;51.198;6.824;2023-02-22T10:52:20;-21807.63;;;18.80;56.46
19890;BME280;10107;51.198;6.824;2023-02-22T10:56:25;-21818.97;;;19.25;54.47
19890;BME280;10107;51.198;6.824;2023-02-22T11:00:28;-21805.28;;;18.71;54.40
19890;BME280;10107;51.198;6.824;2023-02-22T11:04:30;-21797.28;;;18.40;55.91
19890;BME280;10107;51.198;6.824;2023-02-22T11:08:44;-21800.31;;;18.52;55.53
19890;BME280;10107;51.198;6.824;2023-02-22T11:12:51;-21813.63;;;19.04;53.92
19890;BME280;10107;51.198;6.824;2023-02-22T11:16:53;-21835.69;;;19.91;51.81
19890;BME280;10107;51.198;6.824;2023-02-22T11:21:00;-21835.56;;;19.90;51.09
19890;BME280;10107;51.198;6.824;2023-02-22T11:25:02;-21834.66;;;19.87;51.22
19890;BME280;10107;51.198;6.824;2023-02-22T11:29:12;-21814.41;;;19.07;53.48
19890;BME280;10107;51.198;6.824;2023-02-22T11:33:17;-21821.59;;;19.35;53.38
19890;BME280;10107;51.198;6.824;2023-02-22T11:37:27;-21805.28;;;18.71;54.15
19890;BME280;10107;51.198;6.824;2023-02-22T11:41:30;-21806.44;;;18.76;54.11
19890;BME280;10107;51.198;6.824;2023-02-22T11:45:34;-21814.94;;;19.09;54.50
19890;BME280;10107;51.198;6.824;2023-02-22T11:49:36;-21815.84;;;19.13;54.36
19890;BME280;10107;51.198;6.824;2023-02-22T11:53:42;-21817.94;;;19.21;53.32
19890;BME280;10107;51.198;6.824;2023-02-22T11:57:52;-21811.66;;;18.96;53.41
19890;BME280;10107;51.198;6.824;2023-02-22T12:01:57;-21818.97;;;19.25;52.90
19890;BME280;10107;51.198;6.824;2023-02-22T12:06:08;-21821.47;;;19.35;51.86
19890;BME280;10107;51.198;6.824;2023-02-22T12:10:18;-21837.25;;;19.97;51.77
19890;BME280;10107;51.198;6.824;2023-02-22T12:14:23;-21836.47;;;19.94;50.51
19890;BME280;10107;51.198;6.824;2023-02-22T12:18:29;-21830.72;;;19.71;50.37
19890;BME280;10107;51.198;6.824;2023-02-22T12:22:35;-21827.72;;;19.59;51.00
19890;BME280;10107;51.198;6.824;2023-02-22T12:26:39;-21808.81;;;18.85;52.36
19890;BME280;10107;51.198;6.824;2023-02-22T12:30:42;-21790.38;;;18.13;55.57
19890;BME280;10107;51.198;6.824;2023-02-22T12:34:47;-21765.50;;;17.15;58.15
19890;BME280;10107;51.198;6.824;2023-02-22T12:38:51;-21748.56;;;16.49;61.37
19890;BME280;10107;51.198;6.824;2023-02-22T12:42:55;-21740.56;;;16.18;62.15
19890;BME280;10107;51.198;6.824;2023-02-22T12:46:59;-21746.34;;;16.40;63.28
19890;BME280;10107;51.198;6.824;2023-02-22T12:51:11;-21745.69;;;16.38;61.18
19890;BME280;10107;51.198;6.824;2023-02-22T12:55:17;-21740.31;;;16.17;63.04
19890;BME280;10107;51.198;6.824;2023-02-22T12:59:21;-21737.41;;;16.06;62.96
19890;BME280;10107;51.198;6.824;2023-02-22T13:03:27;-21739.38;;;16.13;62.72
19890;BME280;10107;51.198;6.824;2023-02-22T13:07:36;-21738.22;;;16.09;63.27
19890;BME280;10107;51.198;6.824;2023-02-22T13:11:42;-21736.38;;;16.01;64.51
19890;BME280;10107;51.198;6.824;2023-02-22T13:15:49;-21737.81;;;16.07;64.03
19890;BME280;10107;51.198;6.824;2023-02-22T13:19:56;-21741.75;;;16.22;64.22
19890;BME280;10107;51.198;6.824;2023-02-22T13:24:02;-21736.38;;;16.01;63.09
19890;BME280;10107;51.198;6.824;2023-02-22T13:28:19;-21732.97;;;15.88;63.61
19890;BME280;10107;51.198;6.824;2023-02-22T13:32:25;-21732.03;;;15.84;63.67
19890;BME280;10107;51.198;6.824;2023-02-22T13:36:31;-21729.28;;;15.74;64.39
19890;BME280;10107;51.198;6.824;2023-02-22T13:40:44;-21725.72;;;15.60;65.82
19890;BME280;10107;51.198;6.824;2023-02-22T13:44:51;-21725.34;;;15.58;65.84
19890;BME280;10107;51.198;6.824;2023-02-22T13:53:15;-21727.69;;;15.68;68.09
19890;BME280;10107;51.198;6.824;2023-02-22T13:57:21;-21730.59;;;15.79;66.99
19890;BME280;10107;51.198;6.824;2023-02-22T14:01:37;-21731.91;;;15.84;66.75
19890;BME280;10107;51.198;6.824;2023-02-22T14:05:49;-21732.81;;;15.88;67.03
19890;BME280;10107;51.198;6.824;2023-02-22T14:09:51;-21731.78;;;15.83;66.39
19890;BME280;10107;51.198;6.824;2023-02-22T14:18:14;-21728.34;;;15.70;66.22
19890;BME280;10107;51.198;6.824;2023-02-22T14:22:17;-21725.19;;;15.58;68.33
19890;BME280;10107;51.198;6.824;2023-02-22T14:26:26;-21726.13;;;15.61;68.62
19890;BME280;10107;51.198;6.824;2023-02-22T14:30:29;-21726.25;;;15.62;67.86
19890;BME280;10107;51.198;6.824;2023-02-22T14:34:43;-21726.00;;;15.61;68.57
19890;BME280;10107;51.198;6.824;2023-02-22T14:38:48;-21725.34;;;15.58;68.34
19890;BME280;10107;51.198;6.824;2023-02-22T14:42:57;-21725.34;;;15.58;69.69
19890;BME280;10107;51.198;6.824;2023-02-22T14:47:02;-21723.88;;;15.53;68.65
19890;BME280;10107;51.198;6.824;2023-02-22T14:51:12;-21725.06;;;15.57;68.97
19890;BME280;10107;51.198;6.824;2023-02-22T14:55:16;-21726.00;;;15.61;68.93
19890;BME280;10107;51.198;6.824;2023-02-22T14:59:21;-21725.06;;;15.57;68.62
19890;BME280;10107;51.198;6.824;2023-02-22T15:03:26;-21723.63;;;15.52;68.92
19890;BME280;10107;51.198;6.824;2023-02-22T15:07:33;-21720.88;;;15.41;70.01
19890;BME280;10107;51.198;6.824;2023-02-22T15:11:34;-21717.72;;;15.29;70.67
19890;BME280;10107;51.198;6.824;2023-02-22T15:15:37;-21713.09;;;15.11;72.97
19890;BME280;10107;51.198;6.824;2023-02-22T15:19:40;-21707.19;;;14.88;75.77
19890;BME280;10107;51.198;6.824;2023-02-22T15:23:44;-21703.13;;;14.72;77.29
19890;BME280;10107;51.198;6.824;2023-02-22T15:27:45;-21699.44;;;14.57;78.82
19890;BME280;10107;51.198;6.824;2023-02-22T15:31:47;-21695.34;;;14.41;80.44
19890;BME280;10107;51.198;6.824;2023-02-22T15:35:52;-21691.91;;;14.28;80.94
19890;BME280;10107;51.198;6.824;2023-02-22T15:40:00;-21688.50;;;14.15;81.88
19890;BME280;10107;51.198;6.824;2023-02-22T15:44:06;-21685.72;;;14.04;83.09
19890;BME280;10107;51.198;6.824;2023-02-22T15:48:09;-21682.44;;;13.91;84.36
19890;BME280;10107;51.198;6.824;2023-02-22T15:52:15;-21679.28;;;13.79;85.69
19890;BME280;10107;51.198;6.824;2023-02-22T15:56:24;-21677.56;;;13.72;86.34
19890;BME280;10107;51.198;6.824;2023-02-22T16:00:26;-21674.41;;;13.60;87.45
19890;BME280;10107;51.198;6.824;2023-02-22T16:04:35;-21670.84;;;13.46;88.11
19890;BME280;10107;51.198;6.824;2023-02-22T16:08:39;-21668.22;;;13.36;89.26
19890;BME280;10107;51.198;6.824;2023-02-22T16:12:43;-21664.13;;;13.20;89.92
19890;BME280;10107;51.198;6.824;2023-02-22T16:16:45;-21660.41;;;13.05;90.71
19890;BME280;10107;51.198;6.824;2023-02-22T16:20:46;-21656.06;;;12.88;92.02
19890;BME280;10107;51.198;6.824;2023-02-22T16:25:11;-21650.91;;;12.68;93.72
19890;BME280;10107;51.198;6.824;2023-02-22T16:29:23;-21646.31;;;12.51;95.08
19890;BME280;10107;51.198;6.824;2023-02-22T16:33:25;-21642.22;;;12.35;96.15
19890;BME280;10107;51.198;6.824;2023-02-22T16:37:29;-21638.38;;;12.20;97.28
19890;BME280;10107;51.198;6.824;2023-02-22T16:41:30;-21634.41;;;12.04;98.15
19890;BME280;10107;51.198;6.824;2023-02-22T16:45:33;-21630.44;;;11.89;99.70
19890;BME280;10107;51.198;6.824;2023-02-22T16:49:35;-21627.81;;;11.79;100.00
19890;BME280;10107;51.198;6.824;2023-02-22T16:53:38;-21624.09;;;11.64;100.00
19890;BME280;10107;51.198;6.824;2023-02-22T16:57:39;-21620.78;;;11.52;100.00
19890;BME280;10107;51.198;6.824;2023-02-22T17:01:43;-21617.63;;;11.39;100.00
19890;BME280;10107;51.198;6.824;2023-02-22T17:05:44;-21614.72;;;11.28;100.00
19890;BME280;10107;51.198;6.824;2023-02-22T17:09:46;-21614.03;;;11.25;100.00
19890;BME280;10107;51.198;6.824;2023-02-22T17:13:47;-21614.19;;;11.26;100.00
19890;BME280;10107;51.198;6.824;2023-02-22T17:17:52;-21614.56;;;11.27;100.00
19890;BME280;10107;51.198;6.824;2023-02-22T17:21:54;-21613.13;;;11.22;100.00
19890;BME280;10107;51.198;6.824;2023-02-22T17:25:56;-21612.84;;;11.21;100.00
19890;BME280;10107;51.198;6.824;2023-02-22T17:29:58;-21612.44;;;11.19;100.00
19890;BME280;10107;51.198;6.824;2023-02-22T17:34:01;-21612.31;;;11.19;100.00
19890;BME280;10107;51.198;6.824;2023-02-22T17:38:04;-21611.13;;;11.14;100.00
19890;BME280;10107;51.198;6.824;2023-02-22T17:42:06;-21608.63;;;11.04;100.00
19890;BME280;10107;51.198;6.824;2023-02-22T17:46:07;-21606.50;;;10.96;100.00
19890;BME280;10107;51.198;6.824;2023-02-22T17:50:10;-21604.50;;;10.88;100.00
19890;BME280;10107;51.198;6.824;2023-02-22T17:54:14;-21603.06;;;10.83;100.00
19890;BME280;10107;51.198;6.824;2023-02-22T17:58:17;-21601.72;;;10.78;100.00
19890;BME280;10107;51.198;6.824;2023-02-22T18:02:19;-21601.72;;;10.78;100.00
19890;BME280;10107;51.198;6.824;2023-02-22T18:06:22;-21601.88;;;10.78;100.00
19890;BME280;10107;51.198;6.824;2023-02-22T18:10:27;-21601.19;;;10.76;100.00
19890;BME280;10107;51.198;6.824;2023-02-22T18:14:28;-21601.59;;;10.77;100.00
19890;BME280;10107;51.198;6.824;2023-02-22T18:18:30;-21602.78;;;10.82;100.00
19890;BME280;10107;51.198;6.824;2023-02-22T18:22:33;-21602.25;;;10.80;100.00
19890;BME280;10107;51.198;6.824;2023-02-22T18:26:35;-21601.59;;;10.77;100.00
19890;BME280;10107;51.198;6.824;2023-02-22T18:30:38;-21600.81;;;10.74;100.00
19890;BME280;10107;51.198;6.824;2023-02-22T18:34:40;-21601.34;;;10.76;100.00
19890;BME280;10107;51.198;6.824;2023-02-22T18:38:43;-21601.34;;;10.76;100.00
19890;BME280;10107;51.198;6.824;2023-02-22T18:42:44;-21599.88;;;10.70;100.00
19890;BME280;10107;51.198;6.824;2023-02-22T18:46:46;-21598.44;;;10.65;100.00
19890;BME280;10107;51.198;6.824;2023-02-22T18:50:48;-21596.16;;;10.56;100.00
19890;BME280;10107;51.198;6.824;2023-02-22T18:54:53;-21592.88;;;10.43;100.00
19890;BME280;10107;51.198;6.824;2023-02-22T18:58:54;-21589.53;;;10.30;100.00
19890;BME280;10107;51.198;6.824;2023-02-22T19:02:56;-21587.16;;;10.21;100.00
19890;BME280;10107;51.198;6.824;2023-02-22T19:06:59;-21584.25;;;10.10;100.00
19890;BME280;10107;51.198;6.824;2023-02-22T19:11:02;-21581.59;;;10.00;100.00
19890;BME280;10107;51.198;6.824;2023-02-22T19:15:04;-21578.81;;;9.89;100.00
19890;BME280;10107;51.198;6.824;2023-02-22T19:19:06;-21576.28;;;9.79;100.00
19890;BME280;10107;51.198;6.824;2023-02-22T19:23:07;-21573.38;;;9.68;100.00
19890;BME280;10107;51.198;6.824;2023-02-22T19:27:11;-21571.25;;;9.60;100.00
19890;BME280;10107;51.198;6.824;2023-02-22T19:31:13;-21569.00;;;9.51;100.00
19890;BME280;10107;51.198;6.824;2023-02-22T19:35:15;-21567.41;;;9.45;100.00
19890;BME280;10107;51.198;6.824;2023-02-22T19:39:25;-21566.72;;;9.42;100.00
19890;BME280;10107;51.198;6.824;2023-02-22T19:43:29;-21565.81;;;9.39;100.00
19890;BME280;10107;51.198;6.824;2023-02-22T19:47:30;-21565.53;;;9.38;100.00
19890;BME280;10107;51.198;6.824;2023-02-22T19:51:32;-21565.00;;;9.36;100.00
19890;BME280;10107;51.198;6.824;2023-02-22T19:55:35;-21564.88;;;9.35;100.00
19890;BME280;10107;51.198;6.824;2023-02-22T19:59:37;-21563.94;;;9.31;100.00
19890;BME280;10107;51.198;6.824;2023-02-22T20:03:39;-21563.69;;;9.30;100.00
19890;BME280;10107;51.198;6.824;2023-02-22T20:07:41;-21563.16;;;9.28;100.00
19890;BME280;10107;51.198;6.824;2023-02-22T20:11:43;-21562.63;;;9.26;100.00
19890;BME280;10107;51.198;6.824;2023-02-22T20:15:46;-21561.69;;;9.23;100.00
19890;BME280;10107;51.198;6.824;2023-02-22T20:19:49;-21561.28;;;9.21;100.00
19890;BME280;10107;51.198;6.824;2023-02-22T20:23:52;-21561.56;;;9.22;100.00
19890;BME280;10107;51.198;6.824;2023-02-22T20:27:56;-21561.81;;;9.23;100.00
19890;BME280;10107;51.198;6.824;2023-02-22T20:32:01;-21561.81;;;9.23;100.00
19890;BME280;10107;51.198;6.824;2023-02-22T20:36:05;-21561.56;;;9.22;100.00
19890;BME280;10107;51.198;6.824;2023-02-22T20:40:09;-21561.81;;;9.23;100.00
19890;BME280;10107;51.198;6.824;2023-02-22T20:44:12;-21561.44;;;9.22;100.00
19890;BME280;10107;51.198;6.824;2023-02-22T20:48:15;-21561.28;;;9.21;100.00
19890;BME280;10107;51.198;6.824;2023-02-22T20:52:17;-21560.75;;;9.19;100.00
19890;BME280;10107;51.198;6.824;2023-02-22T20:56:19;-21561.03;;;9.20;100.00
19890;BME280;10107;51.198;6.824;2023-02-22T21:00:22;-21561.16;;;9.21;100.00
19890;BME280;10107;51.198;6.824;2023-02-22T21:04:25;-21560.91;;;9.20;100.00
19890;BME280;10107;51.198;6.824;2023-02-22T21:08:30;-21560.50;;;9.18;100.00
19890;BME280;10107;51.198;6.824;2023-02-22T21:12:33;-21559.97;;;9.16;100.00
19890;BME280;10107;51.198;6.824;2023-02-22T21:16:37;-21559.44;;;9.14;100.00
19890;BME280;10107;51.198;6.824;2023-02-22T21:20:40;-21558.63;;;9.11;100.00
19890;BME280;10107;51.198;6.824;2023-02-22T21:24:42;-21557.84;;;9.08;100.00
19890;BME280;10107;51.198;6.824;2023-02-22T21:28:44;-21558.13;;;9.09;100.00